sensor_id;sensor_type;location;lat;lon;timestamp;P1;durP1;ratioP1;P2;durP2;ratioP2
74375;SDS011;62812;55.188;61.302;2023-07-28T00:04:49;8.15;;;4.90;;
74375;SDS011;62812;55.188;61.302;2023-07-28T00:08:26;8.15;;;4.75;;
74375;SDS011;62812;55.188;61.302;2023-07-28T00:11:36;9.32;;;4.72;;
74375;SDS011;62812;55.188;61.302;2023-07-28T00:34:26;7.35;;;4.40;;
74375;SDS011;62812;55.188;61.302;2023-07-28T00:37:06;8.75;;;4.97;;
74375;SDS011;62812;55.188;61.302;2023-07-28T00:39:45;8.05;;;4.40;;
74375;SDS011;62812;55.188;61.302;2023-07-28T00:42:32;11.05;;;4.65;;
74375;SDS011;62812;55.188;61.302;2023-07-28T00:45:29;6.68;;;4.07;;
74375;SDS011;62812;55.188;61.302;2023-07-28T00:48:15;10.55;;;5.15;;
74375;SDS011;62812;55.188;61.302;2023-07-28T00:54:33;9.05;;;4.65;;
74375;SDS011;62812;55.188;61.302;2023-07-28T00:57:27;12.30;;;7.38;;
74375;SDS011;62812;55.188;61.302;2023-07-28T01:00:03;8.80;;;4.70;;
74375;SDS011;62812;55.188;61.302;2023-07-28T01:03:17;13.38;;;7.97;;
74375;SDS011;62812;55.188;61.302;2023-07-28T01:06:24;8.50;;;4.50;;
74375;SDS011;62812;55.188;61.302;2023-07-28T01:12:08;9.73;;;5.35;;
74375;SDS011;62812;55.188;61.302;2023-07-28T01:15:12;8.45;;;4.15;;
74375;SDS011;62812;55.188;61.302;2023-07-28T01:17:55;10.48;;;5.63;;
74375;SDS011;62812;55.188;61.302;2023-07-28T01:20:37;8.07;;;4.00;;
74375;SDS011;62812;55.188;61.302;2023-07-28T01:23:40;6.80;;;3.90;;
74375;SDS011;62812;55.188;61.302;2023-07-28T01:26:30;11.88;;;4.57;;
74375;SDS011;62812;55.188;61.302;2023-07-28T01:29:11;9.63;;;4.85;;
74375;SDS011;62812;55.188;61.302;2023-07-28T01:32:13;10.68;;;4.75;;
74375;SDS011;62812;55.188;61.302;2023-07-28T01:34:44;9.85;;;4.53;;
74375;SDS011;62812;55.188;61.302;2023-07-28T01:37:56;8.25;;;3.80;;
74375;SDS011;62812;55.188;61.302;2023-07-28T01:40:27;11.52;;;4.35;;
74375;SDS011;62812;55.188;61.302;2023-07-28T01:43:08;10.23;;;4.68;;
74375;SDS011;62812;55.188;61.302;2023-07-28T01:45:50;9.10;;;4.78;;
74375;SDS011;62812;55.188;61.302;2023-07-28T01:48:24;9.38;;;5.05;;
74375;SDS011;62812;55.188;61.302;2023-07-28T01:50:58;8.60;;;4.95;;
74375;SDS011;62812;55.188;61.302;2023-07-28T01:53:40;11.48;;;5.70;;
74375;SDS011;62812;55.188;61.302;2023-07-28T02:10:52;8.10;;;4.60;;
74375;SDS011;62812;55.188;61.302;2023-07-28T02:13:37;11.15;;;5.05;;
74375;SDS011;62812;55.188;61.302;2023-07-28T02:16:07;9.20;;;4.50;;
74375;SDS011;62812;55.188;61.302;2023-07-28T02:18:35;11.82;;;4.95;;
74375;SDS011;62812;55.188;61.302;2023-07-28T02:23:33;10.60;;;4.40;;
74375;SDS011;62812;55.188;61.302;2023-07-28T02:26:07;8.35;;;3.80;;
74375;SDS011;62812;55.188;61.302;2023-07-28T02:28:34;8.60;;;4.20;;
74375;SDS011;62812;55.188;61.302;2023-07-28T02:31:05;10.73;;;5.05;;
74375;SDS011;62812;55.188;61.302;2023-07-28T02:33:32;8.82;;;4.25;;
74375;SDS011;62812;55.188;61.302;2023-07-28T02:36:04;11.07;;;4.47;;
74375;SDS011;62812;55.188;61.302;2023-07-28T02:38:33;8.95;;;4.30;;
74375;SDS011;62812;55.188;61.302;2023-07-28T02:41:00;7.85;;;4.35;;
74375;SDS011;62812;55.188;61.302;2023-07-28T02:43:34;7.38;;;4.15;;
74375;SDS011;62812;55.188;61.302;2023-07-28T02:48:28;7.95;;;4.05;;
74375;SDS011;62812;55.188;61.302;2023-07-28T02:50:57;9.55;;;4.00;;
74375;SDS011;62812;55.188;61.302;2023-07-28T02:53:24;9.82;;;4.18;;
74375;SDS011;62812;55.188;61.302;2023-07-28T02:55:50;9.20;;;3.95;;
74375;SDS011;62812;55.188;61.302;2023-07-28T02:58:20;7.78;;;4.22;;
74375;SDS011;62812;55.188;61.302;2023-07-28T03:00:51;9.43;;;4.80;;
74375;SDS011;62812;55.188;61.302;2023-07-28T03:03:17;8.70;;;4.22;;
74375;SDS011;62812;55.188;61.302;2023-07-28T03:05:54;8.93;;;3.90;;
74375;SDS011;62812;55.188;61.302;2023-07-28T03:08:22;8.88;;;4.20;;
74375;SDS011;62812;55.188;61.302;2023-07-28T03:10:49;7.05;;;4.05;;
74375;SDS011;62812;55.188;61.302;2023-07-28T03:13:16;7.50;;;4.15;;
74375;SDS011;62812;55.188;61.302;2023-07-28T03:15:50;12.30;;;4.30;;
74375;SDS011;62812;55.188;61.302;2023-07-28T03:18:19;7.93;;;3.70;;
74375;SDS011;62812;55.188;61.302;2023-07-28T03:20:46;8.00;;;4.10;;
74375;SDS011;62812;55.188;61.302;2023-07-28T03:23:13;10.35;;;4.68;;
74375;SDS011;62812;55.188;61.302;2023-07-28T03:25:41;8.48;;;4.22;;
74375;SDS011;62812;55.188;61.302;2023-07-28T03:28:10;8.65;;;4.03;;
74375;SDS011;62812;55.188;61.302;2023-07-28T03:30:37;7.90;;;4.07;;
74375;SDS011;62812;55.188;61.302;2023-07-28T03:33:15;9.57;;;4.68;;
74375;SDS011;62812;55.188;61.302;2023-07-28T03:35:47;8.30;;;4.40;;
74375;SDS011;62812;55.188;61.302;2023-07-28T03:38:14;7.25;;;4.20;;
74375;SDS011;62812;55.188;61.302;2023-07-28T03:43:12;10.45;;;4.30;;
74375;SDS011;62812;55.188;61.302;2023-07-28T03:45:39;8.07;;;3.53;;
74375;SDS011;62812;55.188;61.302;2023-07-28T03:48:13;10.52;;;4.03;;
74375;SDS011;62812;55.188;61.302;2023-07-28T03:50:44;7.70;;;4.07;;
74375;SDS011;62812;55.188;61.302;2023-07-28T03:53:11;7.53;;;4.22;;
74375;SDS011;62812;55.188;61.302;2023-07-28T03:55:42;8.35;;;4.03;;
74375;SDS011;62812;55.188;61.302;2023-07-28T03:58:12;8.45;;;3.75;;
74375;SDS011;62812;55.188;61.302;2023-07-28T04:00:39;10.13;;;4.25;;
74375;SDS011;62812;55.188;61.302;2023-07-28T04:03:10;7.15;;;3.90;;
74375;SDS011;62812;55.188;61.302;2023-07-28T04:05:41;10.93;;;4.28;;
74375;SDS011;62812;55.188;61.302;2023-07-28T04:08:07;7.45;;;4.30;;
74375;SDS011;62812;55.188;61.302;2023-07-28T04:10:35;9.25;;;4.05;;
74375;SDS011;62812;55.188;61.302;2023-07-28T04:13:05;8.13;;;4.10;;
74375;SDS011;62812;55.188;61.302;2023-07-28T04:15:31;9.00;;;4.65;;
74375;SDS011;62812;55.188;61.302;2023-07-28T04:17:58;7.65;;;4.22;;
74375;SDS011;62812;55.188;61.302;2023-07-28T04:20:29;8.73;;;4.25;;
74375;SDS011;62812;55.188;61.302;2023-07-28T04:23:13;10.77;;;3.65;;
74375;SDS011;62812;55.188;61.302;2023-07-28T04:25:43;9.70;;;3.97;;
74375;SDS011;62812;55.188;61.302;2023-07-28T04:28:10;9.65;;;3.95;;
74375;SDS011;62812;55.188;61.302;2023-07-28T04:30:40;8.30;;;3.83;;
74375;SDS011;62812;55.188;61.302;2023-07-28T04:33:07;10.60;;;3.08;;
74375;SDS011;62812;55.188;61.302;2023-07-28T05:07:42;9.25;;;3.90;;
74375;SDS011;62812;55.188;61.302;2023-07-28T05:11:02;9.88;;;3.70;;
74375;SDS011;62812;55.188;61.302;2023-07-28T05:14:25;7.03;;;3.25;;
74375;SDS011;62812;55.188;61.302;2023-07-28T05:17:13;5.90;;;3.30;;
74375;SDS011;62812;55.188;61.302;2023-07-28T05:19:45;5.18;;;3.08;;
74375;SDS011;62812;55.188;61.302;2023-07-28T05:22:18;7.20;;;3.53;;
74375;SDS011;62812;55.188;61.302;2023-07-28T05:27:36;7.63;;;3.53;;
74375;SDS011;62812;55.188;61.302;2023-07-28T05:30:04;8.07;;;3.80;;
74375;SDS011;62812;55.188;61.302;2023-07-28T05:32:55;8.48;;;3.80;;
74375;SDS011;62812;55.188;61.302;2023-07-28T05:35:24;8.60;;;4.10;;
74375;SDS011;62812;55.188;61.302;2023-07-28T05:37:52;7.15;;;3.83;;
74375;SDS011;62812;55.188;61.302;2023-07-28T05:43:14;7.65;;;3.83;;
74375;SDS011;62812;55.188;61.302;2023-07-28T05:45:47;7.32;;;3.95;;
74375;SDS011;62812;55.188;61.302;2023-07-28T05:48:32;7.03;;;3.90;;
74375;SDS011;62812;55.188;61.302;2023-07-28T05:51:05;8.57;;;3.60;;
74375;SDS011;62812;55.188;61.302;2023-07-28T05:53:46;8.13;;;3.45;;
74375;SDS011;62812;55.188;61.302;2023-07-28T05:56:23;8.88;;;3.97;;
74375;SDS011;62812;55.188;61.302;2023-07-28T05:58:59;7.65;;;4.13;;
74375;SDS011;62812;55.188;61.302;2023-07-28T06:01:56;11.23;;;3.80;;
74375;SDS011;62812;55.188;61.302;2023-07-28T06:04:45;6.68;;;3.47;;
74375;SDS011;62812;55.188;61.302;2023-07-28T06:07:36;6.18;;;3.38;;
74375;SDS011;62812;55.188;61.302;2023-07-28T06:10:38;10.65;;;4.20;;
74375;SDS011;62812;55.188;61.302;2023-07-28T06:13:17;8.25;;;3.67;;
74375;SDS011;62812;55.188;61.302;2023-07-28T06:15:52;8.35;;;4.03;;
74375;SDS011;62812;55.188;61.302;2023-07-28T06:18:27;9.75;;;3.95;;
74375;SDS011;62812;55.188;61.302;2023-07-28T06:21:00;7.82;;;3.40;;
74375;SDS011;62812;55.188;61.302;2023-07-28T06:23:33;7.47;;;3.03;;
74375;SDS011;62812;55.188;61.302;2023-07-28T06:26:18;10.23;;;3.58;;
74375;SDS011;62812;55.188;61.302;2023-07-28T06:28:47;7.78;;;3.40;;
74375;SDS011;62812;55.188;61.302;2023-07-28T06:31:18;5.53;;;3.00;;
74375;SDS011;62812;55.188;61.302;2023-07-28T06:33:50;7.97;;;3.05;;
74375;SDS011;62812;55.188;61.302;2023-07-28T06:36:19;8.05;;;2.88;;
74375;SDS011;62812;55.188;61.302;2023-07-28T06:38:47;8.88;;;3.80;;
74375;SDS011;62812;55.188;61.302;2023-07-28T06:41:19;6.00;;;2.80;;
74375;SDS011;62812;55.188;61.302;2023-07-28T06:43:51;7.22;;;2.97;;
74375;SDS011;62812;55.188;61.302;2023-07-28T06:46:21;7.38;;;3.45;;
74375;SDS011;62812;55.188;61.302;2023-07-28T06:48:48;8.45;;;3.45;;
74375;SDS011;62812;55.188;61.302;2023-07-28T06:51:19;5.70;;;2.80;;
74375;SDS011;62812;55.188;61.302;2023-07-28T06:53:49;6.35;;;3.08;;
74375;SDS011;62812;55.188;61.302;2023-07-28T06:56:53;7.20;;;2.88;;
74375;SDS011;62812;55.188;61.302;2023-07-28T06:59:47;8.73;;;3.10;;
74375;SDS011;62812;55.188;61.302;2023-07-28T07:02:57;4.78;;;1.98;;
74375;SDS011;62812;55.188;61.302;2023-07-28T07:05:31;6.10;;;3.22;;
74375;SDS011;62812;55.188;61.302;2023-07-28T07:08:02;4.63;;;2.17;;
74375;SDS011;62812;55.188;61.302;2023-07-28T07:10:31;6.68;;;2.90;;
74375;SDS011;62812;55.188;61.302;2023-07-28T07:13:03;6.38;;;2.90;;
74375;SDS011;62812;55.188;61.302;2023-07-28T07:15:37;7.65;;;3.17;;
74375;SDS011;62812;55.188;61.302;2023-07-28T07:18:05;5.57;;;2.33;;
74375;SDS011;62812;55.188;61.302;2023-07-28T07:20:36;5.80;;;3.03;;
74375;SDS011;62812;55.188;61.302;2023-07-28T07:23:04;5.97;;;2.78;;
74375;SDS011;62812;55.188;61.302;2023-07-28T07:25:32;6.75;;;2.53;;
74375;SDS011;62812;55.188;61.302;2023-07-28T07:28:00;5.38;;;2.45;;
74375;SDS011;62812;55.188;61.302;2023-07-28T07:30:28;7.70;;;3.30;;
74375;SDS011;62812;55.188;61.302;2023-07-28T07:33:06;6.05;;;2.78;;
74375;SDS011;62812;55.188;61.302;2023-07-28T07:35:36;4.60;;;2.00;;
74375;SDS011;62812;55.188;61.302;2023-07-28T07:38:11;3.65;;;1.38;;
74375;SDS011;62812;55.188;61.302;2023-07-28T07:43:13;7.43;;;2.83;;
74375;SDS011;62812;55.188;61.302;2023-07-28T07:45:46;5.75;;;2.08;;
74375;SDS011;62812;55.188;61.302;2023-07-28T07:48:22;4.93;;;1.73;;
74375;SDS011;62812;55.188;61.302;2023-07-28T07:50:50;5.95;;;2.50;;
74375;SDS011;62812;55.188;61.302;2023-07-28T07:53:18;4.65;;;2.35;;
74375;SDS011;62812;55.188;61.302;2023-07-28T07:55:50;4.85;;;2.35;;
74375;SDS011;62812;55.188;61.302;2023-07-28T07:58:20;7.07;;;2.45;;
74375;SDS011;62812;55.188;61.302;2023-07-28T08:00:52;8.88;;;2.50;;
74375;SDS011;62812;55.188;61.302;2023-07-28T08:03:27;5.40;;;2.72;;
74375;SDS011;62812;55.188;61.302;2023-07-28T08:06:08;6.65;;;2.45;;
74375;SDS011;62812;55.188;61.302;2023-07-28T08:08:38;5.03;;;2.53;;
74375;SDS011;62812;55.188;61.302;2023-07-28T08:13:40;5.97;;;2.60;;
74375;SDS011;62812;55.188;61.302;2023-07-28T08:16:10;6.28;;;2.10;;
74375;SDS011;62812;55.188;61.302;2023-07-28T08:18:39;4.03;;;1.73;;
74375;SDS011;62812;55.188;61.302;2023-07-28T08:21:16;6.90;;;2.28;;
74375;SDS011;62812;55.188;61.302;2023-07-28T08:23:43;4.72;;;2.53;;
74375;SDS011;62812;55.188;61.302;2023-07-28T08:26:16;6.25;;;2.47;;
74375;SDS011;62812;55.188;61.302;2023-07-28T08:28:43;6.30;;;2.58;;
74375;SDS011;62812;55.188;61.302;2023-07-28T08:31:10;7.30;;;2.60;;
74375;SDS011;62812;55.188;61.302;2023-07-28T08:33:46;5.35;;;2.38;;
74375;SDS011;62812;55.188;61.302;2023-07-28T08:36:15;4.70;;;2.50;;
74375;SDS011;62812;55.188;61.302;2023-07-28T08:38:42;4.07;;;1.80;;
74375;SDS011;62812;55.188;61.302;2023-07-28T08:41:14;4.85;;;2.70;;
74375;SDS011;62812;55.188;61.302;2023-07-28T08:43:41;5.25;;;2.38;;
74375;SDS011;62812;55.188;61.302;2023-07-28T08:46:11;6.75;;;2.13;;
74375;SDS011;62812;55.188;61.302;2023-07-28T08:48:40;7.90;;;2.50;;
74375;SDS011;62812;55.188;61.302;2023-07-28T08:51:11;4.78;;;2.05;;
74375;SDS011;62812;55.188;61.302;2023-07-28T08:53:42;4.95;;;2.08;;
74375;SDS011;62812;55.188;61.302;2023-07-28T08:56:11;7.80;;;2.20;;
74375;SDS011;62812;55.188;61.302;2023-07-28T08:58:38;6.25;;;2.55;;
74375;SDS011;62812;55.188;61.302;2023-07-28T09:01:07;6.40;;;3.20;;
74375;SDS011;62812;55.188;61.302;2023-07-28T09:03:39;5.22;;;2.28;;
74375;SDS011;62812;55.188;61.302;2023-07-28T09:06:12;5.53;;;2.05;;
74375;SDS011;62812;55.188;61.302;2023-07-28T09:08:41;7.22;;;2.17;;
74375;SDS011;62812;55.188;61.302;2023-07-28T09:11:09;6.50;;;2.55;;
74375;SDS011;62812;55.188;61.302;2023-07-28T09:13:40;5.03;;;2.13;;
74375;SDS011;62812;55.188;61.302;2023-07-28T09:16:17;7.22;;;2.25;;
74375;SDS011;62812;55.188;61.302;2023-07-28T09:21:20;6.22;;;2.33;;
74375;SDS011;62812;55.188;61.302;2023-07-28T09:23:50;7.45;;;2.00;;
74375;SDS011;62812;55.188;61.302;2023-07-28T09:26:20;5.22;;;2.50;;
74375;SDS011;62812;55.188;61.302;2023-07-28T09:28:48;6.32;;;2.22;;
74375;SDS011;62812;55.188;61.302;2023-07-28T09:31:20;5.40;;;2.40;;
74375;SDS011;62812;55.188;61.302;2023-07-28T09:33:57;5.93;;;2.38;;
74375;SDS011;62812;55.188;61.302;2023-07-28T09:36:27;6.75;;;2.40;;
74375;SDS011;62812;55.188;61.302;2023-07-28T09:38:55;4.18;;;2.50;;
74375;SDS011;62812;55.188;61.302;2023-07-28T09:41:23;6.40;;;2.45;;
74375;SDS011;62812;55.188;61.302;2023-07-28T09:43:55;6.22;;;2.65;;
74375;SDS011;62812;55.188;61.302;2023-07-28T09:46:28;7.43;;;2.47;;
74375;SDS011;62812;55.188;61.302;2023-07-28T09:48:59;5.70;;;2.63;;
74375;SDS011;62812;55.188;61.302;2023-07-28T09:51:30;5.97;;;3.15;;
74375;SDS011;62812;55.188;61.302;2023-07-28T09:54:04;6.32;;;2.50;;
74375;SDS011;62812;55.188;61.302;2023-07-28T09:56:34;6.85;;;2.53;;
74375;SDS011;62812;55.188;61.302;2023-07-28T09:59:04;6.53;;;2.80;;
74375;SDS011;62812;55.188;61.302;2023-07-28T10:01:39;6.35;;;2.60;;
74375;SDS011;62812;55.188;61.302;2023-07-28T10:04:08;5.97;;;2.55;;
74375;SDS011;62812;55.188;61.302;2023-07-28T10:06:54;5.07;;;2.83;;
74375;SDS011;62812;55.188;61.302;2023-07-28T10:12:23;6.53;;;2.83;;
74375;SDS011;62812;55.188;61.302;2023-07-28T10:15:00;5.63;;;2.65;;
74375;SDS011;62812;55.188;61.302;2023-07-28T10:18:10;6.20;;;2.60;;
74375;SDS011;62812;55.188;61.302;2023-07-28T10:23:37;6.53;;;2.65;;
74375;SDS011;62812;55.188;61.302;2023-07-28T10:26:08;6.85;;;2.97;;
74375;SDS011;62812;55.188;61.302;2023-07-28T10:28:56;5.03;;;2.78;;
74375;SDS011;62812;55.188;61.302;2023-07-28T10:32:26;5.00;;;2.72;;
74375;SDS011;62812;55.188;61.302;2023-07-28T10:35:05;6.75;;;2.90;;
74375;SDS011;62812;55.188;61.302;2023-07-28T10:37:33;6.35;;;2.70;;
74375;SDS011;62812;55.188;61.302;2023-07-28T10:43:00;6.15;;;2.65;;
74375;SDS011;62812;55.188;61.302;2023-07-28T10:45:36;5.25;;;2.90;;
74375;SDS011;62812;55.188;61.302;2023-07-28T10:48:19;8.90;;;2.97;;
74375;SDS011;62812;55.188;61.302;2023-07-28T10:50:56;5.32;;;2.78;;
74375;SDS011;62812;55.188;61.302;2023-07-28T10:53:23;8.45;;;3.10;;
74375;SDS011;62812;55.188;61.302;2023-07-28T10:55:54;5.53;;;2.90;;
74375;SDS011;62812;55.188;61.302;2023-07-28T10:58:21;8.77;;;2.80;;
74375;SDS011;62812;55.188;61.302;2023-07-28T11:00:50;5.68;;;2.90;;
74375;SDS011;62812;55.188;61.302;2023-07-28T11:03:17;5.80;;;2.90;;
74375;SDS011;62812;55.188;61.302;2023-07-28T11:05:45;4.60;;;2.80;;
74375;SDS011;62812;55.188;61.302;2023-07-28T11:08:16;7.10;;;3.00;;
74375;SDS011;62812;55.188;61.302;2023-07-28T11:10:43;7.07;;;3.00;;
74375;SDS011;62812;55.188;61.302;2023-07-28T11:13:11;7.18;;;2.65;;
74375;SDS011;62812;55.188;61.302;2023-07-28T11:15:39;3.28;;;1.42;;
74375;SDS011;62812;55.188;61.302;2023-07-28T11:18:06;5.55;;;2.35;;
74375;SDS011;62812;55.188;61.302;2023-07-28T11:20:33;6.07;;;2.78;;
74375;SDS011;62812;55.188;61.302;2023-07-28T11:23:00;6.68;;;2.88;;
74375;SDS011;62812;55.188;61.302;2023-07-28T11:25:29;6.93;;;3.05;;
74375;SDS011;62812;55.188;61.302;2023-07-28T11:28:01;6.10;;;3.00;;
74375;SDS011;62812;55.188;61.302;2023-07-28T11:30:35;6.72;;;3.15;;
74375;SDS011;62812;55.188;61.302;2023-07-28T11:33:08;6.35;;;3.03;;
74375;SDS011;62812;55.188;61.302;2023-07-28T11:35:37;6.05;;;3.10;;
74375;SDS011;62812;55.188;61.302;2023-07-28T11:38:06;9.05;;;3.60;;
74375;SDS011;62812;55.188;61.302;2023-07-28T11:43:03;10.10;;;4.20;;
74375;SDS011;62812;55.188;61.302;2023-07-28T11:45:34;6.57;;;3.20;;
74375;SDS011;62812;55.188;61.302;2023-07-28T11:48:03;7.07;;;3.00;;
74375;SDS011;62812;55.188;61.302;2023-07-28T11:50:44;13.52;;;4.80;;
74375;SDS011;62812;55.188;61.302;2023-07-28T11:53:42;9.00;;;3.72;;
74375;SDS011;62812;55.188;61.302;2023-07-28T11:56:57;10.98;;;4.68;;
74375;SDS011;62812;55.188;61.302;2023-07-28T11:59:27;8.07;;;3.40;;
74375;SDS011;62812;55.188;61.302;2023-07-28T12:02:34;12.77;;;4.03;;
74375;SDS011;62812;55.188;61.302;2023-07-28T12:05:03;10.68;;;4.10;;
74375;SDS011;62812;55.188;61.302;2023-07-28T12:07:51;5.18;;;2.72;;
74375;SDS011;62812;55.188;61.302;2023-07-28T12:10:18;10.68;;;4.00;;
74375;SDS011;62812;55.188;61.302;2023-07-28T12:12:45;7.22;;;3.28;;
74375;SDS011;62812;55.188;61.302;2023-07-28T12:15:20;8.40;;;3.80;;
74375;SDS011;62812;55.188;61.302;2023-07-28T12:20:46;13.13;;;3.58;;
74375;SDS011;62812;55.188;61.302;2023-07-28T12:23:18;7.15;;;2.97;;
74375;SDS011;62812;55.188;61.302;2023-07-28T12:25:47;7.53;;;3.20;;
74375;SDS011;62812;55.188;61.302;2023-07-28T12:28:31;8.68;;;3.30;;
74375;SDS011;62812;55.188;61.302;2023-07-28T12:30:58;13.60;;;5.15;;
74375;SDS011;62812;55.188;61.302;2023-07-28T12:33:29;8.35;;;3.30;;
74375;SDS011;62812;55.188;61.302;2023-07-28T12:35:56;11.43;;;5.03;;
74375;SDS011;62812;55.188;61.302;2023-07-28T12:38:23;13.88;;;5.15;;
74375;SDS011;62812;55.188;61.302;2023-07-28T12:40:52;11.55;;;3.97;;
74375;SDS011;62812;55.188;61.302;2023-07-28T12:43:19;14.70;;;4.85;;
74375;SDS011;62812;55.188;61.302;2023-07-28T12:45:46;11.02;;;3.88;;
74375;SDS011;62812;55.188;61.302;2023-07-28T12:48:13;7.95;;;3.25;;
74375;SDS011;62812;55.188;61.302;2023-07-28T12:50:41;8.75;;;3.95;;
74375;SDS011;62812;55.188;61.302;2023-07-28T12:53:22;8.38;;;3.88;;
74375;SDS011;62812;55.188;61.302;2023-07-28T12:55:49;7.88;;;3.70;;
74375;SDS011;62812;55.188;61.302;2023-07-28T12:58:16;9.70;;;3.45;;
74375;SDS011;62812;55.188;61.302;2023-07-28T13:00:43;8.90;;;3.17;;
74375;SDS011;62812;55.188;61.302;2023-07-28T13:03:10;8.82;;;3.38;;
74375;SDS011;62812;55.188;61.302;2023-07-28T13:05:37;7.55;;;3.08;;
74375;SDS011;62812;55.188;61.302;2023-07-28T13:08:06;7.65;;;3.00;;
74375;SDS011;62812;55.188;61.302;2023-07-28T13:10:36;8.05;;;2.83;;
74375;SDS011;62812;55.188;61.302;2023-07-28T13:13:08;6.78;;;3.20;;
74375;SDS011;62812;55.188;61.302;2023-07-28T13:15:36;7.95;;;2.97;;
74375;SDS011;62812;55.188;61.302;2023-07-28T13:18:04;7.13;;;3.42;;
74375;SDS011;62812;55.188;61.302;2023-07-28T13:20:33;7.45;;;3.30;;
74375;SDS011;62812;55.188;61.302;2023-07-28T13:23:00;8.20;;;2.97;;
74375;SDS011;62812;55.188;61.302;2023-07-28T13:25:28;6.30;;;2.83;;
74375;SDS011;62812;55.188;61.302;2023-07-28T13:27:56;7.68;;;2.97;;
74375;SDS011;62812;55.188;61.302;2023-07-28T13:30:25;7.13;;;2.97;;
74375;SDS011;62812;55.188;61.302;2023-07-28T13:32:57;6.25;;;2.08;;
74375;SDS011;62812;55.188;61.302;2023-07-28T13:38:52;10.23;;;3.25;;
74375;SDS011;62812;55.188;61.302;2023-07-28T13:41:25;5.75;;;2.72;;
74375;SDS011;62812;55.188;61.302;2023-07-28T13:46:27;5.60;;;2.80;;
74375;SDS011;62812;55.188;61.302;2023-07-28T13:48:54;7.72;;;3.10;;
74375;SDS011;62812;55.188;61.302;2023-07-28T13:51:26;6.47;;;2.67;;
74375;SDS011;62812;55.188;61.302;2023-07-28T13:53:57;5.85;;;2.95;;
74375;SDS011;62812;55.188;61.302;2023-07-28T13:56:23;7.20;;;2.78;;
74375;SDS011;62812;55.188;61.302;2023-07-28T13:58:55;6.35;;;2.67;;
74375;SDS011;62812;55.188;61.302;2023-07-28T14:01:24;7.05;;;2.65;;
74375;SDS011;62812;55.188;61.302;2023-07-28T14:03:52;5.93;;;3.00;;
74375;SDS011;62812;55.188;61.302;2023-07-28T14:06:20;9.35;;;2.78;;
74375;SDS011;62812;55.188;61.302;2023-07-28T14:08:47;8.23;;;2.80;;
74375;SDS011;62812;55.188;61.302;2023-07-28T14:11:14;7.40;;;2.90;;
74375;SDS011;62812;55.188;61.302;2023-07-28T14:13:44;8.60;;;2.92;;
74375;SDS011;62812;55.188;61.302;2023-07-28T14:16:10;6.32;;;2.47;;
74375;SDS011;62812;55.188;61.302;2023-07-28T14:18:38;5.07;;;2.55;;
74375;SDS011;62812;55.188;61.302;2023-07-28T14:21:07;6.68;;;2.22;;
74375;SDS011;62812;55.188;61.302;2023-07-28T14:23:35;9.68;;;2.90;;
74375;SDS011;62812;55.188;61.302;2023-07-28T14:26:01;8.73;;;3.10;;
74375;SDS011;62812;55.188;61.302;2023-07-28T14:28:29;7.22;;;3.17;;
74375;SDS011;62812;55.188;61.302;2023-07-28T14:30:57;8.20;;;3.13;;
74375;SDS011;62812;55.188;61.302;2023-07-28T14:33:24;7.03;;;3.08;;
74375;SDS011;62812;55.188;61.302;2023-07-28T14:35:54;8.15;;;3.15;;
74375;SDS011;62812;55.188;61.302;2023-07-28T14:38:23;6.55;;;2.47;;
74375;SDS011;62812;55.188;61.302;2023-07-28T14:40:53;6.90;;;2.65;;
74375;SDS011;62812;55.188;61.302;2023-07-28T14:43:21;5.88;;;2.88;;
74375;SDS011;62812;55.188;61.302;2023-07-28T14:45:51;9.45;;;3.13;;
74375;SDS011;62812;55.188;61.302;2023-07-28T14:48:25;5.28;;;2.25;;
74375;SDS011;62812;55.188;61.302;2023-07-28T14:51:03;8.05;;;2.90;;
74375;SDS011;62812;55.188;61.302;2023-07-28T14:53:38;8.45;;;2.70;;
74375;SDS011;62812;55.188;61.302;2023-07-28T14:56:29;6.57;;;2.60;;
74375;SDS011;62812;55.188;61.302;2023-07-28T14:59:30;8.35;;;2.45;;
74375;SDS011;62812;55.188;61.302;2023-07-28T15:02:08;4.60;;;2.33;;
74375;SDS011;62812;55.188;61.302;2023-07-28T15:04:42;6.22;;;2.35;;
74375;SDS011;62812;55.188;61.302;2023-07-28T15:07:15;7.80;;;2.42;;
74375;SDS011;62812;55.188;61.302;2023-07-28T15:09:50;7.20;;;2.45;;
74375;SDS011;62812;55.188;61.302;2023-07-28T15:12:21;5.55;;;2.33;;
74375;SDS011;62812;55.188;61.302;2023-07-28T15:14:56;6.93;;;2.33;;
74375;SDS011;62812;55.188;61.302;2023-07-28T15:17:29;6.88;;;2.20;;
74375;SDS011;62812;55.188;61.302;2023-07-28T15:20:01;7.25;;;2.78;;
74375;SDS011;62812;55.188;61.302;2023-07-28T15:22:30;5.53;;;2.40;;
74375;SDS011;62812;55.188;61.302;2023-07-28T15:25:02;4.57;;;2.25;;
74375;SDS011;62812;55.188;61.302;2023-07-28T15:27:32;7.07;;;2.20;;
74375;SDS011;62812;55.188;61.302;2023-07-28T15:30:01;10.45;;;2.42;;
74375;SDS011;62812;55.188;61.302;2023-07-28T15:32:38;5.63;;;2.13;;
74375;SDS011;62812;55.188;61.302;2023-07-28T15:35:19;6.82;;;2.38;;
74375;SDS011;62812;55.188;61.302;2023-07-28T15:37:46;4.35;;;2.08;;
74375;SDS011;62812;55.188;61.302;2023-07-28T15:40:13;4.82;;;2.05;;
74375;SDS011;62812;55.188;61.302;2023-07-28T15:42:43;8.98;;;2.33;;
74375;SDS011;62812;55.188;61.302;2023-07-28T15:45:12;5.47;;;2.35;;
74375;SDS011;62812;55.188;61.302;2023-07-28T15:47:43;5.32;;;2.25;;
74375;SDS011;62812;55.188;61.302;2023-07-28T15:50:18;4.32;;;2.00;;
74375;SDS011;62812;55.188;61.302;2023-07-28T15:52:46;6.88;;;2.45;;
74375;SDS011;62812;55.188;61.302;2023-07-28T15:55:14;6.57;;;2.15;;
74375;SDS011;62812;55.188;61.302;2023-07-28T15:57:44;4.55;;;2.00;;
74375;SDS011;62812;55.188;61.302;2023-07-28T16:00:14;4.72;;;2.00;;
74375;SDS011;62812;55.188;61.302;2023-07-28T16:02:42;6.82;;;2.20;;
74375;SDS011;62812;55.188;61.302;2023-07-28T16:05:15;4.57;;;2.20;;
74375;SDS011;62812;55.188;61.302;2023-07-28T16:07:51;4.07;;;1.88;;
74375;SDS011;62812;55.188;61.302;2023-07-28T16:10:18;7.93;;;2.47;;
74375;SDS011;62812;55.188;61.302;2023-07-28T16:12:45;6.57;;;2.22;;
74375;SDS011;62812;55.188;61.302;2023-07-28T16:15:12;5.05;;;2.25;;
74375;SDS011;62812;55.188;61.302;2023-07-28T16:17:52;7.03;;;2.40;;
74375;SDS011;62812;55.188;61.302;2023-07-28T16:20:26;4.57;;;2.30;;
74375;SDS011;62812;55.188;61.302;2023-07-28T16:22:57;4.97;;;2.28;;
74375;SDS011;62812;55.188;61.302;2023-07-28T16:25:28;6.03;;;2.65;;
74375;SDS011;62812;55.188;61.302;2023-07-28T16:27:57;5.47;;;2.33;;
74375;SDS011;62812;55.188;61.302;2023-07-28T16:32:53;9.05;;;2.70;;
74375;SDS011;62812;55.188;61.302;2023-07-28T16:35:23;7.18;;;2.72;;
74375;SDS011;62812;55.188;61.302;2023-07-28T16:37:50;5.78;;;2.80;;
74375;SDS011;62812;55.188;61.302;2023-07-28T16:40:22;4.57;;;2.38;;
74375;SDS011;62812;55.188;61.302;2023-07-28T16:42:49;11.70;;;2.40;;
74375;SDS011;62812;55.188;61.302;2023-07-28T16:45:17;6.05;;;2.63;;
74375;SDS011;62812;55.188;61.302;2023-07-28T16:50:14;7.40;;;2.60;;
74375;SDS011;62812;55.188;61.302;2023-07-28T16:52:47;4.70;;;2.42;;
74375;SDS011;62812;55.188;61.302;2023-07-28T16:55:14;5.13;;;2.55;;
74375;SDS011;62812;55.188;61.302;2023-07-28T16:57:46;7.45;;;2.75;;
74375;SDS011;62812;55.188;61.302;2023-07-28T17:00:13;8.13;;;2.60;;
74375;SDS011;62812;55.188;61.302;2023-07-28T17:02:43;7.55;;;2.40;;
74375;SDS011;62812;55.188;61.302;2023-07-28T17:05:12;5.57;;;2.60;;
74375;SDS011;62812;55.188;61.302;2023-07-28T17:07:42;6.22;;;2.50;;
74375;SDS011;62812;55.188;61.302;2023-07-28T17:10:12;5.95;;;2.58;;
74375;SDS011;62812;55.188;61.302;2023-07-28T17:12:40;3.95;;;1.70;;
74375;SDS011;62812;55.188;61.302;2023-07-28T17:15:08;5.55;;;2.50;;